Time;durP1;ratioP1;P1;durP2;ratioP2;P2;SDS_P1;SDS_P2;PMS_P1;PMS_P2;Temp;Humidity;BMP_temperature;BMP_pressure;BME280_temperature;BME280_humidity;BME280_pressure;Samples;Min_cycle;Max_cycle;Signal;HPM_P1;HPM_P2
2022/12/11 00:01:12;;;;;;;41.10;20.90;;;-1.60;99.90;;;;;;4928668;29;20486;-70
2022/12/11 00:03:39;;;;;;;51.60;27.00;;;-1.60;99.90;;;;;;4928592;29;20462;-70
2022/12/11 00:06:08;;;;;;;47.00;24.07;;;-1.70;99.90;;;;;;4952716;28;20461;-70
2022/12/11 00:08:37;;;;;;;47.40;26.00;;;-1.70;99.90;;;;;;4959587;28;20446;-71
2022/12/11 00:13:46;;;;;;;50.73;25.50;;;-1.70;99.90;;;;;;4955458;28;20437;-70
2022/12/11 00:16:16;;;;;;;47.87;22.77;;;-1.70;99.90;;;;;;4959814;28;20437;-70
2022/12/11 00:18:46;;;;;;;58.53;25.00;;;-1.70;99.90;;;;;;4959623;28;20532;-70
2022/12/11 00:21:20;;;;;;;40.60;23.23;;;-1.80;99.90;;;;;;4957705;28;20946;-70
2022/12/11 00:23:48;;;;;;;44.70;22.90;;;-1.80;99.90;;;;;;4958259;28;20974;-70
2022/12/11 00:26:27;;;;;;;43.00;24.20;;;-1.80;99.90;;;;;;4960021;28;20541;-73
2022/12/11 00:28:56;;;;;;;52.10;23.50;;;-1.70;99.90;;;;;;4960430;28;20453;-71
2022/12/11 00:31:38;;;;;;;52.63;23.27;;;-1.80;99.90;;;;;;4958436;28;21036;-70
2022/12/11 00:34:05;;;;;;;47.00;24.90;;;-1.80;99.90;;;;;;4960665;28;20461;-74
2022/12/11 00:36:36;;;;;;;43.40;20.93;;;-1.80;99.90;;;;;;4960601;28;20464;-74
2022/12/11 00:39:07;;;;;;;53.50;23.80;;;-1.80;99.90;;;;;;4962117;28;20460;-71
2022/12/11 00:41:35;;;;;;;43.80;21.17;;;-1.80;99.90;;;;;;4953067;28;20493;-70
2022/12/11 00:44:03;;;;;;;46.73;25.10;;;-1.90;99.90;;;;;;4950771;29;20486;-70
2022/12/11 00:46:32;;;;;;;41.43;22.77;;;-1.90;99.90;;;;;;4950320;29;20471;-73
2022/12/11 00:49:00;;;;;;;48.10;22.30;;;-1.90;99.90;;;;;;4949775;29;20470;-71
2022/12/11 00:51:28;;;;;;;36.13;20.47;;;-1.90;99.90;;;;;;4951035;29;20466;-71
2022/12/11 00:53:55;;;;;;;38.43;19.50;;;-2.00;99.90;;;;;;4951732;29;20528;-70
2022/12/11 00:56:24;;;;;;;36.17;19.57;;;-1.90;99.90;;;;;;4952907;29;20472;-70
2022/12/11 00:58:53;;;;;;;36.47;20.53;;;-2.00;99.90;;;;;;4954102;29;20521;-71
2022/12/11 01:01:25;;;;;;;34.33;19.00;;;-2.00;99.90;;;;;;4952411;29;21075;-71
2022/12/11 01:03:54;;;;;;;32.80;18.20;;;-2.00;99.90;;;;;;4954391;28;20470;-70
2022/12/11 01:06:24;;;;;;;34.23;17.60;;;-2.00;99.90;;;;;;4934777;29;20545;-70
2022/12/11 01:10:22;;;;;;;33.37;18.67;;;-1.60;99.90;;;;;;4934564;29;20474;-71
2022/12/11 01:11:41;;;;;;;40.50;19.87;;;-2.10;99.90;;;;;;4934300;29;20452;-70
2022/12/11 01:14:10;;;;;;;37.17;20.67;;;-2.10;99.90;;;;;;4934378;29;20485;-70
2022/12/11 01:16:44;;;;;;;32.50;16.97;;;-2.60;99.90;;;;;;4934116;29;20589;-70
2022/12/11 01:19:15;;;;;;;38.07;18.87;;;-2.00;99.90;;;;;;4934176;29;20524;-70
2022/12/11 01:21:44;;;;;;;30.83;17.17;;;-2.10;99.90;;;;;;4953275;29;21029;-70
2022/12/11 01:24:14;;;;;;;37.53;17.27;;;-2.00;99.90;;;;;;4953372;29;20565;-70
2022/12/11 01:26:42;;;;;;;44.20;19.57;;;-2.10;99.90;;;;;;4953466;29;20466;-70
2022/12/11 01:29:09;;;;;;;40.33;21.00;;;-2.10;99.90;;;;;;4953017;29;20981;-70
2022/12/11 01:31:37;;;;;;;38.83;17.87;;;-2.00;99.90;;;;;;4952783;29;20464;-70
2022/12/11 01:34:06;;;;;;;42.80;20.43;;;-2.00;99.90;;;;;;4953234;29;20450;-70
2022/12/11 01:36:38;;;;;;;32.43;18.27;;;-2.00;99.90;;;;;;4952137;29;20489;-70
2022/12/11 01:39:07;;;;;;;35.87;19.20;;;-2.00;99.90;;;;;;4953257;29;20476;-70
2022/12/11 01:41:34;;;;;;;34.00;17.67;;;-2.00;99.90;;;;;;4954143;29;20453;-71
2022/12/11 01:44:10;;;;;;;36.37;18.60;;;-2.10;99.90;;;;;;4953768;29;20952;-70
2022/12/11 01:46:38;;;;;;;33.47;19.40;;;-2.00;99.90;;;;;;4951810;29;20467;-70
2022/12/11 01:49:12;;;;;;;39.47;19.57;;;-3.20;99.90;;;;;;4952914;29;20482;-70
2022/12/11 01:51:46;;;;;;;38.70;20.03;;;-2.10;99.90;;;;;;4952632;29;20471;-70
2022/12/11 01:54:19;;;;;;;34.33;18.57;;;-2.00;99.90;;;;;;4951624;29;20470;-70
2022/12/11 01:56:49;;;;;;;30.77;15.73;;;-2.00;99.90;;;;;;4952766;28;20992;-69
2022/12/11 01:59:24;;;;;;;32.77;16.60;;;-2.00;99.90;;;;;;4952627;29;20462;-69
2022/12/11 02:01:56;;;;;;;33.93;16.20;;;-2.00;99.90;;;;;;4956185;29;20441;-76
2022/12/11 02:04:29;;;;;;;32.93;16.63;;;-2.00;99.90;;;;;;4956636;29;20563;-70
2022/12/11 02:06:58;;;;;;;37.37;18.30;;;-2.00;99.90;;;;;;4952699;29;20462;-70
2022/12/11 02:09:29;;;;;;;36.77;19.93;;;-2.00;99.90;;;;;;4951504;29;20486;-73
2022/12/11 02:12:03;;;;;;;30.37;16.00;;;-2.00;99.90;;;;;;4952416;29;20800;-73
2022/12/11 02:14:45;;;;;;;26.07;16.63;;;-2.10;99.90;;;;;;4951809;28;20470;-70
2022/12/11 02:17:16;;;;;;;27.90;15.73;;;-0.90;99.90;;;;;;4952657;29;20520;-70
2022/12/11 02:19:57;;;;;;;29.53;16.37;;;-2.00;99.90;;;;;;4952241;29;20466;-72
2022/12/11 02:22:44;;;;;;;31.27;15.00;;;-2.00;99.90;;;;;;4952285;29;20485;-70
2022/12/11 02:25:18;;;;;;;32.17;17.00;;;-2.10;99.90;;;;;;4950851;29;20493;-70
2022/12/11 02:27:47;;;;;;;30.50;18.97;;;-2.10;99.90;;;;;;4951982;29;20485;-70
2022/12/11 02:30:16;;;;;;;36.00;17.37;;;-2.10;99.90;;;;;;4952006;29;20486;-70
2022/12/11 02:32:47;;;;;;;30.73;15.80;;;-2.00;99.90;;;;;;4952066;29;20446;-70
2022/12/11 02:35:19;;;;;;;28.93;15.80;;;-1.90;99.90;;;;;;4951054;29;20540;-70
2022/12/11 02:37:49;;;;;;;34.17;20.20;;;-2.30;99.90;;;;;;4951999;29;20453;-70
2022/12/11 02:40:21;;;;;;;34.70;17.20;;;-2.10;99.90;;;;;;4951877;29;21020;-71
2022/12/11 02:42:50;;;;;;;32.03;15.70;;;-2.00;99.90;;;;;;4952365;29;20449;-71
2022/12/11 02:45:21;;;;;;;30.50;17.63;;;-2.00;99.90;;;;;;4951688;29;21034;-71
2022/12/11 02:47:50;;;;;;;30.43;16.27;;;-2.00;99.90;;;;;;4951732;29;20461;-71
2022/12/11 02:50:22;;;;;;;32.43;18.30;;;-2.00;99.90;;;;;;4951741;29;20466;-70
2022/12/11 02:52:55;;;;;;;27.63;15.90;;;-2.00;99.90;;;;;;4943467;29;20482;-73
2022/12/11 02:55:27;;;;;;;32.67;15.87;;;-2.00;99.90;;;;;;4932579;29;20450;-71
2022/12/11 02:58:04;;;;;;;34.50;17.87;;;-2.10;99.90;;;;;;4932898;29;20465;-71
2022/12/11 03:00:33;;;;;;;29.03;15.33;;;-2.10;99.90;;;;;;4933824;29;20492;-70
2022/12/11 03:03:01;;;;;;;36.23;18.40;;;-2.40;99.90;;;;;;4935351;29;20543;-72
2022/12/11 03:05:30;;;;;;;32.67;16.73;;;-2.10;99.90;;;;;;4935355;29;20527;-71
2022/12/11 03:07:59;;;;;;;34.63;16.13;;;-2.10;99.90;;;;;;4934381;29;20458;-71
2022/12/11 03:10:27;;;;;;;32.70;17.23;;;-2.10;99.90;;;;;;4952345;29;20890;-70
2022/12/11 03:13:02;;;;;;;30.87;16.20;;;-2.10;99.90;;;;;;4954988;29;20888;-71
2022/12/11 03:15:41;;;;;;;30.53;16.23;;;-2.00;99.90;;;;;;4951658;29;20473;-71
2022/12/11 03:18:14;;;;;;;24.60;14.23;;;-2.10;99.90;;;;;;4952101;29;20461;-71
2022/12/11 03:20:44;;;;;;;34.20;18.50;;;-2.10;99.90;;;;;;4954361;29;20492;-72
2022/12/11 03:23:20;;;;;;;30.13;15.67;;;-2.10;99.90;;;;;;4953666;29;20459;-71
2022/12/11 03:25:54;;;;;;;24.60;13.40;;;-2.10;99.90;;;;;;4953128;28;20481;-78
2022/12/11 03:28:28;;;;;;;29.10;15.70;;;-2.10;99.90;;;;;;4954824;29;20488;-72
2022/12/11 03:30:59;;;;;;;26.50;14.73;;;-2.10;99.90;;;;;;4954011;29;20486;-71
2022/12/11 03:33:32;;;;;;;32.03;15.20;;;-2.10;99.90;;;;;;4951414;29;20462;-71
2022/12/11 03:36:04;;;;;;;30.07;16.63;;;-2.20;99.90;;;;;;4951122;28;20462;-70
2022/12/11 03:38:37;;;;;;;32.13;16.00;;;-1.90;99.90;;;;;;4951252;29;20466;-71
2022/12/11 03:41:07;;;;;;;22.47;12.17;;;-2.10;99.90;;;;;;4949982;29;20492;-71
2022/12/11 03:43:38;;;;;;;32.03;16.93;;;-2.20;99.90;;;;;;4952285;29;20465;-71
2022/12/11 03:46:09;;;;;;;25.17;12.63;;;-2.10;99.90;;;;;;4961024;29;21079;-71
2022/12/11 03:48:42;;;;;;;23.33;12.60;;;-1.70;99.90;;;;;;4951080;29;20465;-71
2022/12/11 03:51:10;;;;;;;28.27;14.43;;;-2.20;99.90;;;;;;4951095;29;20556;-73
2022/12/11 03:53:41;;;;;;;27.97;15.07;;;-2.10;99.90;;;;;;4950641;29;20548;-70
2022/12/11 03:56:12;;;;;;;23.10;13.03;;;-2.20;99.90;;;;;;4950842;29;20454;-71
2022/12/11 03:58:41;;;;;;;22.87;11.97;;;-2.20;99.90;;;;;;4950069;28;20509;-71
2022/12/11 04:01:11;;;;;;;26.53;14.70;;;-2.20;99.90;;;;;;4950449;28;21035;-70
2022/12/11 04:03:39;;;;;;;28.63;13.53;;;-2.20;99.90;;;;;;4950638;29;21000;-71
2022/12/11 04:06:15;;;;;;;26.27;13.20;;;-2.20;99.90;;;;;;4950551;29;20869;-72
2022/12/11 04:08:48;;;;;;;27.37;12.57;;;-2.30;99.90;;;;;;4950863;29;20815;-71
2022/12/11 04:17:00;;;;;;;24.37;13.63;;;-2.30;99.90;;;;;;4890919;29;20673;-70
2022/12/11 04:24:59;;;;;;;18.97;12.13;;;-2.30;99.90;;;;;;4950753;29;20493;-71
2022/12/11 04:30:13;;;;;;;28.83;14.07;;;-2.40;99.90;;;;;;4949709;29;20461;-72
2022/12/11 04:32:42;;;;;;;20.10;12.03;;;-2.30;99.90;;;;;;4950497;29;20529;-71
2022/12/11 04:35:10;;;;;;;20.80;11.07;;;-2.30;99.90;;;;;;4950116;28;20454;-71
2022/12/11 04:37:38;;;;;;;28.80;14.40;;;-2.30;99.90;;;;;;4949819;28;20512;-75
2022/12/11 04:40:07;;;;;;;29.90;15.80;;;-2.30;99.90;;;;;;4953294;29;20587;-71
2022/12/11 04:42:34;;;;;;;29.63;15.27;;;-2.30;99.90;;;;;;4953904;28;21147;-71
2022/12/11 04:45:01;;;;;;;24.40;13.07;;;-2.40;99.90;;;;;;4953357;29;20461;-71
2022/12/11 04:47:28;;;;;;;26.57;15.10;;;-2.40;99.90;;;;;;4953576;29;20458;-71
2022/12/11 04:49:56;;;;;;;29.60;15.37;;;-2.40;99.90;;;;;;4952732;28;21010;-71
2022/12/11 04:52:23;;;;;;;20.90;13.23;;;-2.50;99.90;;;;;;4953042;29;20590;-71
2022/12/11 04:54:51;;;;;;;27.60;16.37;;;-2.50;99.90;;;;;;4953140;29;20920;-71
2022/12/11 04:57:19;;;;;;;24.60;13.43;;;-2.50;99.90;;;;;;4953397;28;20621;-71
2022/12/11 04:59:46;;;;;;;24.53;12.23;;;-2.50;99.90;;;;;;4953017;29;21072;-71
2022/12/11 05:02:14;;;;;;;21.00;11.67;;;-2.40;99.90;;;;;;4953080;29;20976;-71
2022/12/11 05:04:42;;;;;;;20.80;10.40;;;-2.40;99.90;;;;;;4952466;29;20461;-71
2022/12/11 05:07:10;;;;;;;18.97;11.03;;;-2.40;99.90;;;;;;4934032;29;20537;-71
2022/12/11 05:09:38;;;;;;;17.00;8.53;;;-2.40;99.90;;;;;;4933972;29;20514;-71
2022/12/11 05:12:05;;;;;;;17.93;9.40;;;-2.30;99.90;;;;;;4934910;29;20474;-71
2022/12/11 05:14:32;;;;;;;22.87;10.40;;;-2.30;99.90;;;;;;4935460;29;20461;-71
2022/12/11 05:17:00;;;;;;;19.20;10.57;;;-2.30;99.90;;;;;;4934212;29;20465;-71
2022/12/11 05:19:27;;;;;;;19.77;12.10;;;-2.30;99.90;;;;;;4934091;29;20462;-71
2022/12/11 05:21:55;;;;;;;17.90;10.53;;;-2.30;99.90;;;;;;4940888;29;20468;-71
2022/12/11 05:24:23;;;;;;;20.97;10.83;;;-2.30;99.90;;;;;;4953527;29;20470;-71
2022/12/11 05:26:51;;;;;;;21.50;10.70;;;-2.30;99.90;;;;;;4953011;29;20495;-71
2022/12/11 05:29:21;;;;;;;16.33;10.07;;;-2.20;99.90;;;;;;4953725;29;20473;-72
2022/12/11 05:31:52;;;;;;;18.67;8.60;;;-2.20;99.90;;;;;;4958785;28;20465;-71
2022/12/11 05:34:20;;;;;;;14.90;9.07;;;-2.20;99.90;;;;;;4964737;28;20952;-71
2022/12/11 05:36:51;;;;;;;15.10;8.73;;;-2.20;99.90;;;;;;4965178;28;20533;-71
2022/12/11 05:39:21;;;;;;;15.10;8.00;;;-2.30;99.90;;;;;;4962666;28;20719;-70
2022/12/11 05:41:49;;;;;;;16.03;8.90;;;-2.20;99.90;;;;;;4961613;28;20453;-70
2022/12/11 05:44:16;;;;;;;11.97;7.77;;;-2.20;99.90;;;;;;4960301;28;20456;-72
2022/12/11 05:46:43;;;;;;;13.17;8.87;;;-2.20;99.90;;;;;;4961658;28;20516;-71
2022/12/11 05:49:10;;;;;;;15.87;8.53;;;-2.20;99.90;;;;;;4961263;28;20462;-70
2022/12/11 05:51:38;;;;;;;14.97;8.37;;;-2.20;99.90;;;;;;4960326;28;20463;-71
2022/12/11 05:54:05;;;;;;;11.63;7.90;;;-2.20;99.90;;;;;;4961430;28;20464;-71
2022/12/11 05:56:34;;;;;;;16.07;8.53;;;-2.20;99.90;;;;;;4961006;28;20581;-71
2022/12/11 05:59:04;;;;;;;16.10;7.90;;;-2.20;99.90;;;;;;4958835;28;20536;-71
2022/12/11 06:01:34;;;;;;;13.47;7.83;;;-2.30;99.90;;;;;;4961320;28;20489;-71
2022/12/11 06:04:01;;;;;;;17.80;9.40;;;-2.30;99.90;;;;;;4958343;28;20493;-70
2022/12/11 06:06:28;;;;;;;14.20;8.57;;;-2.20;99.90;;;;;;4960915;28;20487;-70
2022/12/11 06:08:57;;;;;;;16.70;9.10;;;-2.20;99.90;;;;;;4961684;28;20957;-71
2022/12/11 06:11:25;;;;;;;13.77;8.50;;;-2.30;99.90;;;;;;4944661;28;20480;-72
2022/12/11 06:13:52;;;;;;;14.90;7.47;;;-2.30;99.90;;;;;;4952625;29;20516;-71
2022/12/11 06:16:21;;;;;;;15.97;9.27;;;-2.30;99.90;;;;;;4952290;29;20827;-70
2022/12/11 06:18:49;;;;;;;14.10;8.73;;;-2.30;99.90;;;;;;4952520;29;20823;-71
2022/12/11 06:21:19;;;;;;;14.50;9.03;;;-2.30;99.90;;;;;;4955251;28;20571;-70
2022/12/11 06:23:47;;;;;;;18.87;10.73;;;-2.30;99.90;;;;;;4961359;28;20455;-70
2022/12/11 06:26:15;;;;;;;22.63;9.87;;;-2.30;99.90;;;;;;4959279;28;20482;-71
2022/12/11 06:28:42;;;;;;;17.13;10.17;;;-2.40;99.90;;;;;;4959872;28;20542;-71
2022/12/11 06:31:09;;;;;;;17.57;9.43;;;-2.40;99.90;;;;;;4958864;28;20462;-71
2022/12/11 06:33:41;;;;;;;22.40;11.23;;;-2.40;99.90;;;;;;4957295;28;20445;-70
2022/12/11 06:36:12;;;;;;;26.03;12.40;;;-2.30;99.90;;;;;;4959779;28;20448;-71
2022/12/11 06:38:40;;;;;;;20.30;11.70;;;-2.40;99.90;;;;;;4958533;28;20450;-70
2022/12/11 06:41:10;;;;;;;22.97;13.53;;;-2.40;99.90;;;;;;4962641;28;20536;-71
2022/12/11 06:43:39;;;;;;;27.20;13.80;;;-2.40;99.90;;;;;;4957772;28;20490;-70
2022/12/11 06:46:07;;;;;;;26.10;13.03;;;-2.40;99.90;;;;;;4966871;28;20560;-70
2022/12/11 06:48:39;;;;;;;25.87;13.60;;;-2.40;99.90;;;;;;4965163;28;20453;-70
2022/12/11 06:51:07;;;;;;;23.17;11.63;;;-2.50;99.90;;;;;;4960898;28;20516;-70
2022/12/11 06:53:34;;;;;;;22.10;11.70;;;-2.40;99.90;;;;;;4953571;28;20847;-70
2022/12/11 06:56:04;;;;;;;26.20;14.80;;;-2.40;99.90;;;;;;4950539;29;20526;-71
2022/12/11 06:58:31;;;;;;;24.80;11.87;;;-2.50;99.90;;;;;;4950793;28;20947;-71
2022/12/11 07:00:58;;;;;;;17.10;11.67;;;-2.40;99.90;;;;;;4948935;28;20482;-71
2022/12/11 07:03:26;;;;;;;22.57;11.17;;;-2.40;99.90;;;;;;4950620;29;20540;-71
2022/12/11 07:05:59;;;;;;;24.17;12.67;;;-2.40;99.90;;;;;;4950890;28;20489;-70
2022/12/11 07:08:28;;;;;;;24.47;14.60;;;-2.40;99.90;;;;;;4950254;29;20974;-71
2022/12/11 07:11:04;;;;;;;23.97;14.03;;;-2.40;99.90;;;;;;4950252;29;20994;-71
2022/12/11 07:13:33;;;;;;;26.60;13.00;;;-2.40;99.90;;;;;;4950328;28;20594;-71
2022/12/11 07:16:00;;;;;;;21.50;13.40;;;-2.40;99.90;;;;;;4944936;29;20475;-70
2022/12/11 07:18:28;;;;;;;29.90;12.30;;;-2.40;99.90;;;;;;4945635;29;20464;-71
2022/12/11 07:21:01;;;;;;;22.40;12.33;;;-2.40;99.90;;;;;;4951688;29;20479;-71
2022/12/11 07:23:28;;;;;;;22.70;11.67;;;-2.40;99.90;;;;;;4945466;29;20481;-71
2022/12/11 07:25:56;;;;;;;21.83;11.03;;;-2.40;99.90;;;;;;4934629;29;20467;-72
2022/12/11 07:28:25;;;;;;;29.40;14.83;;;-2.40;99.90;;;;;;4944229;29;20466;-71
2022/12/11 07:30:52;;;;;;;19.07;12.20;;;-2.40;99.90;;;;;;4944976;29;20470;-71
2022/12/11 07:33:20;;;;;;;26.90;13.57;;;-2.40;99.90;;;;;;4949258;28;20544;-70
2022/12/11 07:35:47;;;;;;;25.53;12.33;;;-2.40;99.90;;;;;;4951143;29;20556;-75
2022/12/11 07:38:17;;;;;;;24.13;12.90;;;-2.50;99.90;;;;;;4952045;28;20489;-71
2022/12/11 07:40:44;;;;;;;28.50;13.67;;;-2.40;99.90;;;;;;4962840;28;20481;-70
2022/12/11 07:43:13;;;;;;;27.50;12.57;;;-2.40;99.90;;;;;;4961174;28;20960;-71
2022/12/11 07:45:52;;;;;;;24.10;11.20;;;-2.40;99.90;;;;;;4948125;28;20493;-71
2022/12/11 07:51:10;;;;;;;26.30;13.90;;;-2.40;99.90;;;;;;4947737;29;20952;-70
2022/12/11 07:53:39;;;;;;;28.90;14.97;;;-2.40;99.90;;;;;;4950460;29;20488;-71
2022/12/11 07:56:08;;;;;;;30.83;13.47;;;-2.30;99.90;;;;;;4950888;29;20458;-70
2022/12/11 07:58:37;;;;;;;27.03;13.40;;;-2.40;99.90;;;;;;4948447;29;20477;-70
2022/12/11 08:01:08;;;;;;;27.50;14.83;;;-2.40;99.90;;;;;;4947255;29;21028;-71
2022/12/11 08:03:42;;;;;;;24.00;12.57;;;-2.40;99.90;;;;;;4951332;29;20464;-70
2022/12/11 08:06:11;;;;;;;32.57;14.80;;;-2.40;99.90;;;;;;4959122;28;20442;-81
2022/12/11 08:08:40;;;;;;;27.83;15.13;;;-2.40;99.90;;;;;;4966283;28;20489;-70
2022/12/11 09:04:57;;;;;;;20.10;11.90;;;-2.20;99.90;;;;;;5690718;23;20465;-71
2022/12/11 09:07:24;;;;;;;23.93;13.40;;;-2.10;99.90;;;;;;4952023;29;20489;-73
2022/12/11 09:09:54;;;;;;;22.70;13.70;;;-2.00;99.90;;;;;;5466721;23;20459;-80
2022/12/11 09:20:09;;;;;;;21.10;10.37;;;-2.10;99.90;;;;;;5944969;23;20412;-80
2022/12/11 09:22:37;;;;;;;21.37;13.37;;;-2.00;99.90;;;;;;4963095;28;20466;-78
2022/12/11 09:30:21;;;;;;;19.23;12.57;;;-2.30;99.90;;;;;;4999774;28;20444;-78
2022/12/11 09:35:27;;;;;;;19.70;10.60;;;-2.30;99.90;;;;;;5074628;23;20486;-83
2022/12/11 09:37:54;;;;;;;15.43;9.60;;;-1.50;99.90;;;;;;4943464;29;20550;-81
2022/12/11 09:40:21;;;;;;;19.37;11.40;;;-1.80;99.90;;;;;;4932068;29;20440;-84
2022/12/11 09:42:55;;;;;;;14.70;7.93;;;-2.00;99.90;;;;;;5296589;23;20538;-82
2022/12/11 09:45:22;;;;;;;12.10;9.13;;;-2.20;99.90;;;;;;4982040;28;20466;-79
2022/12/11 09:50:28;;;;;;;20.53;11.87;;;-2.30;99.90;;;;;;5807032;23;20490;-81
2022/12/11 10:03:57;;;;;;;13.20;8.17;;;-2.10;99.90;;;;;;5136535;23;20571;-80
2022/12/11 10:06:37;;;;;;;13.73;10.17;;;-2.10;99.90;;;;;;5069885;23;20742;-78
2022/12/11 10:12:05;;;;;;;13.70;8.47;;;-2.40;99.90;;;;;;5337078;23;20518;-81
2022/12/11 10:43:04;;;;;;;16.93;10.30;;;-2.00;99.90;;;;;;5380205;23;20509;-82
2022/12/11 10:45:32;;;;;;;16.80;10.20;;;-2.20;99.90;;;;;;5462016;23;20478;-81
2022/12/11 10:48:03;;;;;;;19.07;11.40;;;-2.20;99.90;;;;;;4957632;29;20490;-70
2022/12/11 10:50:30;;;;;;;16.07;9.40;;;-2.20;99.90;;;;;;4951272;29;20478;-79
2022/12/11 10:53:01;;;;;;;17.23;10.37;;;-2.40;99.90;;;;;;4971137;28;20452;-84
2022/12/11 11:39:46;;;;;;;12.37;8.63;;;-1.40;99.90;;;;;;5569630;23;20473;-79
2022/12/11 11:42:19;;;;;;;20.50;8.33;;;-1.50;99.90;;;;;;4954095;29;20971;-80
2022/12/11 11:44:53;;;;;;;12.40;8.77;;;-1.60;99.90;;;;;;4948533;29;20471;-80
2022/12/11 11:47:26;;;;;;;16.80;8.93;;;-1.80;99.90;;;;;;4978208;28;20479;-80
2022/12/11 11:50:04;;;;;;;16.53;10.23;;;0.70;99.90;;;;;;4979989;28;20469;-82
2022/12/11 12:00:27;;;;;;;12.10;7.60;;;-1.50;99.90;;;;;;5813876;23;20497;-81
2022/12/11 12:18:41;;;;;;;14.13;8.50;;;-1.80;99.90;;;;;;5622714;23;20476;-83
2022/12/11 13:00:11;;;;;;;9.03;6.50;;;-1.90;99.90;;;;;;6024450;23;20383;-75
2022/12/11 13:13:11;;;;;;;10.17;7.50;;;-1.90;99.90;;;;;;5311251;23;20485;-79
2022/12/11 13:15:44;;;;;;;10.77;6.47;;;-1.50;99.90;;;;;;4981487;28;20445;-83
2022/12/11 13:18:35;;;;;;;9.53;7.17;;;-0.80;99.90;;;;;;4982368;28;20443;-83
2022/12/11 13:23:39;;;;;;;11.53;8.13;;;-1.80;99.90;;;;;;5785919;23;20475;-81
2022/12/11 13:36:32;;;;;;;9.20;6.07;;;-1.50;99.90;;;;;;5957784;23;20406;-75
2022/12/11 13:39:06;;;;;;;8.13;6.33;;;-1.50;99.90;;;;;;4932990;29;20886;-80
2022/12/11 13:41:36;;;;;;;5.53;4.97;;;-1.60;99.90;;;;;;4925667;29;20482;-80
2022/12/11 13:44:05;;;;;;;8.33;6.07;;;-1.70;99.90;;;;;;4920948;29;20451;-80
2022/12/11 13:46:36;;;;;;;7.50;5.87;;;-1.90;99.90;;;;;;4932514;29;20519;-82
2022/12/11 13:49:06;;;;;;;4.80;3.27;;;-1.90;99.90;;;;;;4935646;29;20479;-80
2022/12/11 13:51:36;;;;;;;6.40;5.70;;;-1.90;99.90;;;;;;4928429;29;20443;-79
2022/12/11 13:54:14;;;;;;;6.27;4.50;;;-1.90;99.90;;;;;;4943377;29;20501;-81
2022/12/11 13:56:52;;;;;;;8.50;5.43;;;-1.80;99.90;;;;;;4943285;29;20428;-82
2022/12/11 13:59:28;;;;;;;7.40;4.57;;;-1.80;99.90;;;;;;4943054;29;20435;-82
2022/12/11 14:01:59;;;;;;;6.80;4.97;;;-1.80;99.90;;;;;;4943460;29;20432;-81
2022/12/11 14:04:27;;;;;;;6.93;4.90;;;-2.00;99.90;;;;;;4943962;29;20475;-81
2022/12/11 14:06:57;;;;;;;7.57;5.40;;;-1.90;99.90;;;;;;4943613;29;20509;-82
2022/12/11 14:09:27;;;;;;;7.00;4.63;;;-1.90;99.90;;;;;;4942953;29;20456;-82
2022/12/11 14:11:56;;;;;;;7.60;4.83;;;-1.90;99.90;;;;;;4906687;29;20484;-81
2022/12/11 14:32:44;;;;;;;7.77;4.93;;;-2.00;99.90;;;;;;5610894;23;20478;-82
2022/12/11 14:37:44;;;;;;;8.37;5.90;;;-1.90;99.90;;;;;;5049889;23;20457;-75
2022/12/11 14:40:18;;;;;;;8.00;5.50;;;-2.30;99.90;;;;;;4999769;28;20480;-81
2022/12/11 14:42:52;;;;;;;7.03;4.33;;;-2.30;99.90;;;;;;5892259;23;20981;-79
2022/12/11 14:47:58;;;;;;;10.97;6.30;;;-2.20;99.90;;;;;;5438510;23;20480;-82
2022/12/11 14:50:30;;;;;;;11.43;6.70;;;0.00;99.90;;;;;;4940881;29;20436;-81
2022/12/11 14:53:02;;;;;;;15.30;6.33;;;-2.20;99.90;;;;;;4940315;29;20440;-82
2022/12/11 14:55:31;;;;;;;13.10;6.40;;;-1.90;99.90;;;;;;4941063;29;20454;-82
2022/12/11 14:58:01;;;;;;;5.93;5.17;;;-2.40;99.90;;;;;;4940810;29;20452;-81
2022/12/11 15:00:30;;;;;;;11.47;7.77;;;-2.40;99.90;;;;;;4929924;29;20464;-80
2022/12/11 15:03:00;;;;;;;10.20;6.50;;;-2.40;99.90;;;;;;4922856;29;20456;-83
2022/12/11 15:05:28;;;;;;;8.70;5.40;;;-2.40;99.90;;;;;;4923157;29;20445;-81
2022/12/11 15:07:58;;;;;;;13.37;7.17;;;-2.50;99.90;;;;;;4922715;29;20543;-79
2022/12/11 15:10:31;;;;;;;10.83;6.40;;;-2.50;99.90;;;;;;4921627;29;20476;-80
2022/12/11 15:20:44;;;;;;;9.37;7.07;;;-2.50;99.90;;;;;;4958646;28;20462;-81
2022/12/11 15:31:26;;;;;;;13.50;7.60;;;-2.60;99.90;;;;;;5144178;23;20889;-78
2022/12/11 15:36:36;;;;;;;17.63;8.50;;;-2.60;99.90;;;;;;5032568;23;21089;-76
2022/12/11 15:39:07;;;;;;;13.50;9.23;;;-2.60;99.90;;;;;;4906741;29;20915;-74
2022/12/11 15:41:34;;;;;;;15.17;7.57;;;-2.60;99.90;;;;;;4909928;29;20455;-74
2022/12/11 15:44:03;;;;;;;12.20;7.00;;;-2.60;99.90;;;;;;4909559;29;21155;-73
2022/12/11 15:46:35;;;;;;;17.20;8.50;;;-2.60;99.90;;;;;;4909869;29;20460;-74
2022/12/11 15:49:02;;;;;;;13.60;9.17;;;-2.60;99.90;;;;;;4909134;29;20580;-76
2022/12/11 15:51:29;;;;;;;15.73;8.03;;;-2.60;99.90;;;;;;4910696;29;20562;-77
2022/12/11 15:53:57;;;;;;;13.20;8.50;;;-2.70;99.90;;;;;;4909366;29;20468;-76
2022/12/11 15:56:26;;;;;;;16.33;10.53;;;-2.60;99.90;;;;;;4908670;29;20467;-76
2022/12/11 15:58:53;;;;;;;18.77;10.83;;;-2.60;99.90;;;;;;4906921;29;20539;-76
2022/12/11 16:01:20;;;;;;;15.43;7.80;;;-2.80;99.90;;;;;;4909664;29;20550;-76
2022/12/11 16:03:49;;;;;;;12.83;8.17;;;-2.70;99.90;;;;;;4909167;29;20554;-76
2022/12/11 16:06:16;;;;;;;15.30;9.80;;;-2.70;99.90;;;;;;4894279;29;20475;-76
2022/12/11 16:08:42;;;;;;;12.73;8.57;;;-2.70;99.90;;;;;;4906734;29;20594;-76
2022/12/11 16:11:13;;;;;;;13.50;8.17;;;-2.80;99.90;;;;;;4899966;29;20507;-76
2022/12/11 16:13:40;;;;;;;11.23;8.00;;;-2.70;99.90;;;;;;4892149;29;21016;-75
2022/12/11 16:19:11;;;;;;;10.43;7.10;;;-2.70;99.90;;;;;;5105044;27;20607;-79
2022/12/11 16:21:41;;;;;;;17.77;7.80;;;-2.60;99.90;;;;;;5101851;28;20498;-75
2022/12/11 16:26:54;;;;;;;11.10;7.67;;;-2.70;99.90;;;;;;5102060;28;20458;-76
2022/12/11 16:29:22;;;;;;;14.53;8.13;;;-2.70;99.90;;;;;;5102346;28;20962;-76
2022/12/11 16:31:49;;;;;;;14.23;9.00;;;-2.80;99.90;;;;;;5102578;28;20458;-75
2022/12/11 16:34:21;;;;;;;14.87;9.10;;;-2.80;99.90;;;;;;5103536;28;20459;-75
2022/12/11 16:36:55;;;;;;;15.87;9.27;;;-2.60;99.90;;;;;;5101851;28;21003;-78
2022/12/11 16:39:22;;;;;;;16.50;11.17;;;-3.20;99.90;;;;;;5103441;28;20465;-75
2022/12/11 16:41:49;;;;;;;16.53;10.43;;;-2.80;99.90;;;;;;5102962;28;21032;-74
2022/12/11 16:44:19;;;;;;;11.10;6.90;;;-2.80;99.90;;;;;;5103423;28;20450;-75
2022/12/11 16:46:46;;;;;;;17.23;9.27;;;-2.80;99.90;;;;;;5102974;28;20451;-75
2022/12/11 16:49:13;;;;;;;18.70;11.33;;;-2.80;99.90;;;;;;5103967;28;20549;-75
2022/12/11 16:51:41;;;;;;;20.67;10.40;;;-2.80;99.90;;;;;;5102764;28;20543;-75
2022/12/11 16:54:08;;;;;;;15.40;8.80;;;-2.80;99.90;;;;;;5100315;28;20466;-76
2022/12/11 16:56:35;;;;;;;19.47;10.47;;;-2.80;99.90;;;;;;5102833;28;20546;-77
2022/12/11 16:59:02;;;;;;;16.43;11.60;;;-2.80;99.90;;;;;;5103001;28;20461;-76
2022/12/11 17:01:29;;;;;;;20.90;10.83;;;-2.80;99.90;;;;;;5103169;28;21024;-76
2022/12/11 17:03:58;;;;;;;18.87;10.37;;;-2.90;99.90;;;;;;5103205;28;20446;-76
2022/12/11 17:06:25;;;;;;;14.70;9.77;;;-2.80;99.90;;;;;;5102152;28;20483;-76
2022/12/11 17:08:53;;;;;;;16.07;10.20;;;-2.80;99.90;;;;;;5102051;28;20522;-76
2022/12/11 17:11:23;;;;;;;13.20;9.57;;;-2.70;99.90;;;;;;5101860;28;20472;-76
2022/12/11 17:13:53;;;;;;;16.03;11.57;;;-2.80;99.90;;;;;;5102592;28;20875;-76
2022/12/11 17:16:20;;;;;;;15.00;10.00;;;-2.80;99.90;;;;;;5102682;28;20447;-76
2022/12/11 17:18:48;;;;;;;18.17;9.87;;;-2.90;99.90;;;;;;5101584;28;20490;-76
2022/12/11 17:21:16;;;;;;;20.43;12.43;;;-2.90;99.90;;;;;;5102571;28;20610;-77
2022/12/11 17:23:44;;;;;;;18.07;11.87;;;-2.90;99.90;;;;;;5102101;28;20958;-76
2022/12/11 17:26:12;;;;;;;14.23;10.43;;;-2.90;99.90;;;;;;5102167;28;20950;-76
2022/12/11 17:28:40;;;;;;;16.83;10.80;;;-2.90;99.90;;;;;;5094302;28;20490;-76
2022/12/11 17:31:08;;;;;;;17.60;11.00;;;-2.90;99.90;;;;;;5068101;28;20446;-77
2022/12/11 17:33:35;;;;;;;16.93;10.40;;;-3.00;99.90;;;;;;5075109;28;20547;-76
2022/12/11 17:36:03;;;;;;;20.10;11.30;;;-2.60;99.90;;;;;;5088073;28;20539;-76
2022/12/11 17:38:30;;;;;;;21.20;11.40;;;-2.80;99.90;;;;;;5076225;28;20571;-77
2022/12/11 17:40:57;;;;;;;16.73;10.27;;;-2.80;99.90;;;;;;5088445;28;20520;-76
2022/12/11 17:43:26;;;;;;;21.33;11.30;;;-2.90;99.90;;;;;;5086971;28;21359;-76
2022/12/11 17:45:54;;;;;;;16.63;9.50;;;-2.90;99.90;;;;;;5088368;28;20496;-76
2022/12/11 17:48:21;;;;;;;19.80;10.33;;;-2.90;99.90;;;;;;5088967;28;20589;-75
2022/12/11 17:50:49;;;;;;;17.37;9.23;;;-2.90;99.90;;;;;;5088791;28;20446;-77
2022/12/11 17:53:18;;;;;;;20.73;11.50;;;-2.90;99.90;;;;;;5089343;28;20538;-76
2022/12/11 17:55:46;;;;;;;17.57;9.23;;;-2.90;99.90;;;;;;5090647;28;20539;-76